Time;durP1;ratioP1;P1;durP2;ratioP2;P2;SDS_P1;SDS_P2;PMS_P1;PMS_P2;Temp;Humidity;BMP_temperature;BMP_pressure;BME280_temperature;BME280_humidity;BME280_pressure;Samples;Min_cycle;Max_cycle;Signal;HPM_P1;HPM_P2
2023/01/23 00:01:45;;;;;;;;;;;23.60;29.80;;;;;;462601;256;1961;-44
2023/01/23 00:03:46;;;;;;;;;;;23.60;29.80;;;;;;462706;256;2146;-44
2023/01/23 00:05:47;;;;;;;;;;;23.60;29.80;;;;;;462715;256;1681;-44
2023/01/23 00:07:49;;;;;;;;;;;23.60;29.80;;;;;;462613;256;2330;-43
2023/01/23 00:09:50;;;;;;;;;;;23.60;29.80;;;;;;462656;256;1971;-44
2023/01/23 00:11:51;;;;;;;;;;;23.60;29.80;;;;;;462690;256;2155;-44
2023/01/23 00:13:53;;;;;;;;;;;23.60;29.80;;;;;;462554;256;2602;-44
2023/01/23 00:15:54;;;;;;;;;;;23.60;29.80;;;;;;462652;256;1958;-44
2023/01/23 00:17:55;;;;;;;;;;;23.60;29.80;;;;;;462591;256;2546;-44
2023/01/23 00:19:58;;;;;;;;;;;23.60;29.80;;;;;;462634;256;1877;-44
2023/01/23 00:21:58;;;;;;;;;;;23.60;29.80;;;;;;462585;256;2300;-44
2023/01/23 00:24:01;;;;;;;;;;;23.60;29.80;;;;;;462706;256;1657;-44
2023/01/23 00:26:02;;;;;;;;;;;23.60;29.70;;;;;;462619;256;1709;-44
2023/01/23 00:28:03;;;;;;;;;;;23.60;29.80;;;;;;462609;256;1597;-44
2023/01/23 00:30:04;;;;;;;;;;;23.70;29.80;;;;;;462584;256;2009;-43
2023/01/23 00:32:06;;;;;;;;;;;23.60;29.80;;;;;;462655;256;1739;-44
2023/01/23 00:34:07;;;;;;;;;;;23.60;29.80;;;;;;462654;256;1914;-44
2023/01/23 00:36:08;;;;;;;;;;;23.60;29.80;;;;;;462656;256;2147;-44
2023/01/23 00:38:10;;;;;;;;;;;23.70;29.80;;;;;;462482;256;2206;-44
2023/01/23 00:40:12;;;;;;;;;;;23.70;29.80;;;;;;462651;256;2705;-44
2023/01/23 00:42:12;;;;;;;;;;;23.70;29.80;;;;;;462745;256;2010;-44
2023/01/23 00:44:14;;;;;;;;;;;23.70;29.80;;;;;;462635;256;1889;-44
2023/01/23 00:46:15;;;;;;;;;;;23.70;29.80;;;;;;462523;256;2178;-44
2023/01/23 00:48:16;;;;;;;;;;;23.70;29.80;;;;;;462632;256;2187;-44
2023/01/23 00:50:18;;;;;;;;;;;23.70;29.80;;;;;;462640;256;2509;-44
2023/01/23 00:52:19;;;;;;;;;;;23.70;29.80;;;;;;462704;256;1695;-43
2023/01/23 00:54:20;;;;;;;;;;;23.70;29.80;;;;;;462655;256;2218;-44
2023/01/23 00:56:22;;;;;;;;;;;23.70;29.70;;;;;;462584;256;1939;-44
2023/01/23 00:58:23;;;;;;;;;;;23.70;29.70;;;;;;462651;256;2203;-44
2023/01/23 01:00:24;;;;;;;;;;;23.70;29.80;;;;;;462717;256;1711;-43
2023/01/23 01:02:26;;;;;;;;;;;23.60;29.80;;;;;;462633;256;1734;-44
2023/01/23 01:04:27;;;;;;;;;;;23.50;30.00;;;;;;462831;256;2056;-44
2023/01/23 01:06:28;;;;;;;;;;;23.20;30.10;;;;;;462628;256;2680;-43
2023/01/23 01:08:30;;;;;;;;;;;23.00;30.30;;;;;;462711;256;2735;-44
2023/01/23 01:10:31;;;;;;;;;;;22.90;30.60;;;;;;462714;256;1944;-43
2023/01/23 01:12:32;;;;;;;;;;;22.70;30.80;;;;;;462641;256;2869;-43
2023/01/23 01:14:34;;;;;;;;;;;22.70;31.00;;;;;;462602;256;2227;-44
2023/01/23 01:16:35;;;;;;;;;;;22.50;31.10;;;;;;462783;256;1942;-43
2023/01/23 01:18:36;;;;;;;;;;;22.50;31.30;;;;;;462736;256;2211;-43
2023/01/23 01:20:38;;;;;;;;;;;22.40;31.30;;;;;;462634;256;1693;-43
2023/01/23 01:22:39;;;;;;;;;;;22.40;31.40;;;;;;462647;256;2065;-43
2023/01/23 01:24:40;;;;;;;;;;;22.30;31.50;;;;;;462763;256;1707;-43
2023/01/23 01:26:42;;;;;;;;;;;22.20;31.60;;;;;;462753;256;1746;-43
2023/01/23 01:28:43;;;;;;;;;;;22.10;31.60;;;;;;462670;256;1727;-43
2023/01/23 01:30:44;;;;;;;;;;;22.10;31.80;;;;;;462506;256;1929;-44
2023/01/23 01:32:46;;;;;;;;;;;22.10;31.80;;;;;;462667;256;1706;-43
2023/01/23 01:34:47;;;;;;;;;;;22.00;31.80;;;;;;462622;256;1962;-43
2023/01/23 01:36:48;;;;;;;;;;;22.00;31.90;;;;;;462737;256;1674;-43
2023/01/23 01:38:50;;;;;;;;;;;22.00;32.00;;;;;;462588;256;2152;-43
2023/01/23 01:40:51;;;;;;;;;;;21.90;32.00;;;;;;462628;256;1744;-43
2023/01/23 01:42:52;;;;;;;;;;;21.90;32.00;;;;;;462627;256;2164;-43
2023/01/23 01:44:54;;;;;;;;;;;21.90;32.10;;;;;;462551;256;2458;-44
2023/01/23 01:46:55;;;;;;;;;;;21.80;32.10;;;;;;462742;256;2000;-43
2023/01/23 01:48:56;;;;;;;;;;;21.80;32.10;;;;;;462673;256;2197;-43
2023/01/23 01:50:58;;;;;;;;;;;22.00;31.90;;;;;;462613;256;2600;-44
2023/01/23 01:52:59;;;;;;;;;;;22.10;31.60;;;;;;462667;256;2172;-44
2023/01/23 01:55:00;;;;;;;;;;;22.30;31.40;;;;;;462653;256;2208;-44
2023/01/23 01:57:02;;;;;;;;;;;22.40;31.30;;;;;;462682;256;2110;-43
2023/01/23 01:59:03;;;;;;;;;;;22.40;31.20;;;;;;462612;256;2183;-44
2023/01/23 02:01:04;;;;;;;;;;;22.30;31.30;;;;;;462563;256;1783;-43
2023/01/23 02:03:05;;;;;;;;;;;22.20;31.50;;;;;;462631;256;2045;-43
2023/01/23 02:05:07;;;;;;;;;;;22.10;31.60;;;;;;462672;256;1898;-44
2023/01/23 02:07:08;;;;;;;;;;;22.00;31.80;;;;;;462693;256;2138;-43
2023/01/23 02:09:09;;;;;;;;;;;21.90;31.90;;;;;;462716;256;2267;-43
2023/01/23 02:11:13;;;;;;;;;;;21.80;32.00;;;;;;462739;256;1671;-44
2023/01/23 02:13:12;;;;;;;;;;;21.70;32.10;;;;;;462558;257;1721;-44
2023/01/23 02:15:13;;;;;;;;;;;21.70;32.10;;;;;;462556;256;1995;-44
2023/01/23 02:17:15;;;;;;;;;;;21.70;32.20;;;;;;462807;256;2177;-43
2023/01/23 02:19:17;;;;;;;;;;;21.60;32.30;;;;;;462586;256;2191;-43
2023/01/23 02:21:17;;;;;;;;;;;21.60;32.30;;;;;;462671;256;2366;-43
2023/01/23 02:23:19;;;;;;;;;;;21.60;32.30;;;;;;462795;256;1807;-43
2023/01/23 02:25:20;;;;;;;;;;;21.60;32.40;;;;;;462668;256;1972;-43
2023/01/23 02:27:21;;;;;;;;;;;21.50;32.40;;;;;;462627;256;2385;-43
2023/01/23 02:29:23;;;;;;;;;;;21.50;32.40;;;;;;462590;256;2138;-43
2023/01/23 02:31:24;;;;;;;;;;;21.50;32.40;;;;;;462640;256;2177;-44
2023/01/23 02:33:25;;;;;;;;;;;21.40;32.40;;;;;;462662;256;2020;-44
2023/01/23 02:35:27;;;;;;;;;;;21.40;32.40;;;;;;462768;256;1718;-43
2023/01/23 02:37:28;;;;;;;;;;;21.50;32.50;;;;;;462588;256;1700;-44
2023/01/23 02:39:29;;;;;;;;;;;21.40;32.50;;;;;;462720;256;2446;-43
2023/01/23 02:41:31;;;;;;;;;;;21.40;32.50;;;;;;462663;256;1622;-43
2023/01/23 02:43:33;;;;;;;;;;;21.40;32.50;;;;;;462777;256;2190;-43
2023/01/23 02:45:34;;;;;;;;;;;21.40;32.50;;;;;;462645;257;2439;-43
2023/01/23 02:47:35;;;;;;;;;;;21.40;32.50;;;;;;462697;254;2122;-44
2023/01/23 02:49:36;;;;;;;;;;;21.40;32.50;;;;;;462724;256;2024;-44
2023/01/23 02:51:38;;;;;;;;;;;21.30;32.60;;;;;;462671;256;2617;-43
2023/01/23 02:53:41;;;;;;;;;;;21.30;32.60;;;;;;462745;256;1845;-43
2023/01/23 02:55:42;;;;;;;;;;;21.30;32.60;;;;;;462552;257;2504;-43
2023/01/23 02:57:44;;;;;;;;;;;21.30;32.60;;;;;;462695;256;2332;-43
2023/01/23 03:02:04;;;;;;;;;;;21.30;32.60;;;;;;462614;257;1721;-43
2023/01/23 03:04:05;;;;;;;;;;;21.30;32.60;;;;;;462521;257;2481;-43
2023/01/23 03:06:06;;;;;;;;;;;21.20;32.60;;;;;;462694;256;2129;-43
2023/01/23 03:08:07;;;;;;;;;;;21.20;32.60;;;;;;462642;256;1974;-43
2023/01/23 03:10:08;;;;;;;;;;;21.20;32.60;;;;;;462669;256;2190;-44
2023/01/23 03:12:10;;;;;;;;;;;21.20;32.70;;;;;;462670;256;1429;-43
2023/01/23 03:14:11;;;;;;;;;;;21.20;32.70;;;;;;462567;256;1804;-43
2023/01/23 03:16:12;;;;;;;;;;;21.20;32.70;;;;;;462663;256;1655;-44
2023/01/23 03:18:14;;;;;;;;;;;21.20;32.70;;;;;;462675;256;1683;-43
2023/01/23 03:20:15;;;;;;;;;;;21.20;32.70;;;;;;462728;256;2187;-43
2023/01/23 03:22:16;;;;;;;;;;;21.20;32.70;;;;;;462695;256;1752;-44
2023/01/23 03:24:18;;;;;;;;;;;21.10;32.70;;;;;;462706;256;1936;-43
2023/01/23 03:26:19;;;;;;;;;;;21.10;32.70;;;;;;462654;256;1696;-43
2023/01/23 03:30:39;;;;;;;;;;;21.10;32.80;;;;;;462635;257;1685;-43
2023/01/23 03:32:41;;;;;;;;;;;21.10;32.80;;;;;;462774;256;2172;-44
2023/01/23 03:34:42;;;;;;;;;;;21.10;32.80;;;;;;462698;256;2502;-43
2023/01/23 03:36:43;;;;;;;;;;;21.10;32.80;;;;;;462754;256;1695;-43
2023/01/23 03:43:35;;;;;;;;;;;21.00;32.80;;;;;;456473;257;2444;-43
2023/01/23 03:45:36;;;;;;;;;;;21.00;32.80;;;;;;462719;256;1981;-43
2023/01/23 03:47:37;;;;;;;;;;;21.00;32.80;;;;;;462660;256;1853;-43
2023/01/23 03:49:39;;;;;;;;;;;21.10;32.80;;;;;;462688;257;1975;-43
2023/01/23 03:51:40;;;;;;;;;;;21.00;32.90;;;;;;462738;256;1970;-43
2023/01/23 03:53:41;;;;;;;;;;;20.90;32.90;;;;;;462746;256;1588;-43
2023/01/23 03:55:43;;;;;;;;;;;21.00;32.90;;;;;;462751;256;1932;-43
2023/01/23 03:57:44;;;;;;;;;;;21.00;32.90;;;;;;462770;256;1833;-43
2023/01/23 03:59:45;;;;;;;;;;;21.00;32.80;;;;;;462778;256;2748;-43
2023/01/23 04:01:47;;;;;;;;;;;21.00;32.80;;;;;;462592;256;1863;-43
2023/01/23 04:03:48;;;;;;;;;;;20.90;32.80;;;;;;462658;256;1884;-43
2023/01/23 04:05:50;;;;;;;;;;;20.90;32.90;;;;;;462636;256;2454;-43
2023/01/23 04:07:51;;;;;;;;;;;20.90;32.90;;;;;;462724;256;1832;-44
2023/01/23 04:09:52;;;;;;;;;;;20.90;32.90;;;;;;462713;256;1752;-43
2023/01/23 04:11:54;;;;;;;;;;;20.90;32.90;;;;;;462726;256;2146;-44
2023/01/23 04:13:55;;;;;;;;;;;20.90;32.90;;;;;;462629;256;1982;-44
2023/01/23 04:15:56;;;;;;;;;;;20.80;32.90;;;;;;462675;256;2426;-43
2023/01/23 04:17:58;;;;;;;;;;;20.80;32.90;;;;;;462689;256;2164;-43
2023/01/23 04:19:59;;;;;;;;;;;20.80;32.90;;;;;;462650;256;2172;-43
2023/01/23 04:22:00;;;;;;;;;;;20.80;32.90;;;;;;462656;256;1983;-43
2023/01/23 04:24:02;;;;;;;;;;;20.80;32.90;;;;;;462661;256;2188;-43
2023/01/23 04:26:03;;;;;;;;;;;20.80;32.90;;;;;;462648;256;1689;-43
2023/01/23 04:28:04;;;;;;;;;;;20.80;32.90;;;;;;462630;256;2492;-43
2023/01/23 04:30:06;;;;;;;;;;;20.80;33.00;;;;;;462698;256;1876;-43
2023/01/23 04:32:08;;;;;;;;;;;20.80;33.00;;;;;;462612;256;2016;-42
2023/01/23 04:34:09;;;;;;;;;;;20.80;33.00;;;;;;462589;256;2115;-44
2023/01/23 04:36:10;;;;;;;;;;;20.80;33.00;;;;;;462610;256;1914;-43
2023/01/23 04:38:11;;;;;;;;;;;20.80;33.00;;;;;;462551;256;1713;-43
2023/01/23 04:40:12;;;;;;;;;;;20.80;33.00;;;;;;462618;256;2195;-43
2023/01/23 04:42:14;;;;;;;;;;;20.70;32.90;;;;;;462684;256;1881;-43
2023/01/23 04:44:21;;;;;;;;;;;21.00;32.70;;;;;;462641;256;1868;-44
2023/01/23 04:46:23;;;;;;;;;;;21.20;32.40;;;;;;462589;256;1697;-44
2023/01/23 04:48:24;;;;;;;;;;;21.40;32.20;;;;;;462628;256;1681;-43
2023/01/23 04:50:25;;;;;;;;;;;21.50;31.90;;;;;;462630;256;2156;-43
2023/01/23 04:52:27;;;;;;;;;;;21.60;31.70;;;;;;462787;256;2289;-44
2023/01/23 04:54:28;;;;;;;;;;;21.70;31.60;;;;;;462581;256;1743;-44
2023/01/23 04:56:29;;;;;;;;;;;21.80;31.40;;;;;;462642;256;1739;-43
2023/01/23 04:58:31;;;;;;;;;;;21.90;31.30;;;;;;462767;256;1648;-44
2023/01/23 05:00:32;;;;;;;;;;;21.90;31.20;;;;;;462754;256;2191;-43
2023/01/23 05:02:33;;;;;;;;;;;22.00;31.10;;;;;;462612;256;1920;-44
2023/01/23 05:04:35;;;;;;;;;;;22.00;31.10;;;;;;462632;256;2161;-43
2023/01/23 05:06:36;;;;;;;;;;;22.10;31.00;;;;;;462761;256;1991;-44
2023/01/23 05:08:37;;;;;;;;;;;22.10;31.00;;;;;;462766;256;1830;-44
2023/01/23 05:10:39;;;;;;;;;;;22.20;30.90;;;;;;462708;256;1915;-44
2023/01/23 05:12:40;;;;;;;;;;;22.20;30.80;;;;;;462752;256;1731;-44
2023/01/23 05:14:41;;;;;;;;;;;22.30;30.80;;;;;;462565;256;2113;-44
2023/01/23 05:16:43;;;;;;;;;;;22.30;30.70;;;;;;462629;256;2212;-44
2023/01/23 05:18:44;;;;;;;;;;;22.30;30.70;;;;;;462610;256;1764;-43
2023/01/23 05:20:45;;;;;;;;;;;22.30;30.70;;;;;;462758;256;2633;-43
2023/01/23 05:22:51;;;;;;;;;;;22.40;30.70;;;;;;462643;256;1906;-43
2023/01/23 05:24:52;;;;;;;;;;;22.40;30.60;;;;;;462594;256;1581;-43
2023/01/23 05:26:54;;;;;;;;;;;22.40;30.60;;;;;;462514;256;1993;-44
2023/01/23 05:28:55;;;;;;;;;;;22.40;30.50;;;;;;462599;256;2242;-44
2023/01/23 05:30:56;;;;;;;;;;;22.50;30.50;;;;;;462595;256;1868;-44
2023/01/23 05:32:58;;;;;;;;;;;22.50;30.50;;;;;;462643;256;2029;-44
2023/01/23 05:34:59;;;;;;;;;;;22.50;30.40;;;;;;462464;256;1765;-44
2023/01/23 05:37:00;;;;;;;;;;;22.60;30.40;;;;;;462572;256;1724;-43
2023/01/23 05:39:02;;;;;;;;;;;22.60;30.40;;;;;;462490;256;2000;-44
2023/01/23 05:41:03;;;;;;;;;;;22.60;30.30;;;;;;462561;256;2207;-44
2023/01/23 05:43:05;;;;;;;;;;;22.60;30.30;;;;;;462553;256;2236;-43
2023/01/23 05:45:06;;;;;;;;;;;22.60;30.30;;;;;;462588;256;1754;-44
2023/01/23 05:47:07;;;;;;;;;;;22.70;30.30;;;;;;462790;256;1657;-44
2023/01/23 05:49:08;;;;;;;;;;;22.70;30.30;;;;;;462510;256;2110;-44
2023/01/23 05:51:10;;;;;;;;;;;22.70;30.30;;;;;;462661;256;1946;-44
2023/01/23 05:53:11;;;;;;;;;;;22.70;30.20;;;;;;462770;256;1849;-44
2023/01/23 05:55:12;;;;;;;;;;;22.70;30.20;;;;;;462478;256;2303;-44
2023/01/23 05:57:14;;;;;;;;;;;22.80;30.20;;;;;;462661;256;1823;-44
2023/01/23 05:59:15;;;;;;;;;;;22.80;30.20;;;;;;462771;256;1886;-44
2023/01/23 06:01:16;;;;;;;;;;;22.80;30.10;;;;;;462579;256;2187;-44
2023/01/23 06:03:18;;;;;;;;;;;22.80;30.10;;;;;;462577;256;1908;-44
2023/01/23 06:05:19;;;;;;;;;;;22.80;30.10;;;;;;462634;256;2474;-44
2023/01/23 06:07:20;;;;;;;;;;;22.90;30.10;;;;;;462554;256;1822;-44
2023/01/23 06:09:22;;;;;;;;;;;22.90;30.10;;;;;;462551;256;1962;-44
2023/01/23 06:11:23;;;;;;;;;;;22.90;30.10;;;;;;462557;256;2236;-44
2023/01/23 06:13:24;;;;;;;;;;;22.90;30.00;;;;;;462428;256;2126;-44
2023/01/23 06:15:26;;;;;;;;;;;22.90;30.00;;;;;;462733;256;1903;-44
2023/01/23 06:17:27;;;;;;;;;;;22.90;30.00;;;;;;462627;256;2372;-44
2023/01/23 06:19:28;;;;;;;;;;;22.90;30.00;;;;;;462576;256;1833;-44
2023/01/23 06:21:30;;;;;;;;;;;23.00;30.00;;;;;;462646;256;2566;-44
2023/01/23 06:23:31;;;;;;;;;;;23.00;30.00;;;;;;462588;256;2385;-44
2023/01/23 06:25:32;;;;;;;;;;;23.00;30.00;;;;;;462636;256;1676;-44
2023/01/23 06:27:34;;;;;;;;;;;23.00;30.00;;;;;;462678;256;1687;-43
2023/01/23 06:29:35;;;;;;;;;;;23.00;30.00;;;;;;462468;256;1700;-44
2023/01/23 06:31:36;;;;;;;;;;;23.00;30.00;;;;;;462632;256;1862;-43
2023/01/23 06:33:37;;;;;;;;;;;23.00;30.00;;;;;;462626;256;2586;-44
2023/01/23 06:35:39;;;;;;;;;;;23.00;30.00;;;;;;462602;256;1951;-44
2023/01/23 06:37:40;;;;;;;;;;;23.10;30.00;;;;;;462689;256;2015;-44
2023/01/23 06:39:41;;;;;;;;;;;23.00;30.00;;;;;;462622;256;1500;-44
2023/01/23 06:41:43;;;;;;;;;;;23.10;30.00;;;;;;462466;256;2227;-44
2023/01/23 06:43:44;;;;;;;;;;;23.10;29.90;;;;;;462682;256;2057;-43
2023/01/23 06:45:45;;;;;;;;;;;23.10;29.90;;;;;;462641;256;1726;-44
2023/01/23 06:47:47;;;;;;;;;;;23.10;29.90;;;;;;462557;256;1767;-43
2023/01/23 06:49:48;;;;;;;;;;;23.10;30.00;;;;;;462634;256;1750;-44
2023/01/23 06:51:49;;;;;;;;;;;23.10;29.90;;;;;;462631;256;1862;-43
2023/01/23 06:53:51;;;;;;;;;;;23.10;29.90;;;;;;462604;256;1728;-44
2023/01/23 06:55:52;;;;;;;;;;;23.20;30.00;;;;;;462615;256;1790;-44
2023/01/23 06:57:53;;;;;;;;;;;23.20;30.00;;;;;;462655;256;1755;-43
2023/01/23 06:59:55;;;;;;;;;;;23.20;30.00;;;;;;462605;256;2142;-44
2023/01/23 07:01:56;;;;;;;;;;;23.20;29.90;;;;;;462312;256;2132;-44
2023/01/23 07:03:57;;;;;;;;;;;23.20;29.90;;;;;;462428;256;1898;-44
2023/01/23 07:05:59;;;;;;;;;;;23.20;29.90;;;;;;462315;256;1599;-44
2023/01/23 07:08:00;;;;;;;;;;;23.20;29.90;;;;;;462485;256;1778;-44
2023/01/23 07:10:01;;;;;;;;;;;23.20;29.90;;;;;;462490;256;3473;-43
2023/01/23 07:12:03;;;;;;;;;;;23.20;29.90;;;;;;462391;256;1755;-44
2023/01/23 07:14:04;;;;;;;;;;;23.30;29.90;;;;;;462469;256;1798;-44
2023/01/23 07:16:05;;;;;;;;;;;23.20;29.80;;;;;;462409;256;1850;-44
2023/01/23 07:18:07;;;;;;;;;;;23.30;29.90;;;;;;462494;256;2254;-44
2023/01/23 07:20:08;;;;;;;;;;;23.30;29.80;;;;;;462464;256;2238;-44
2023/01/23 07:22:09;;;;;;;;;;;23.30;29.80;;;;;;462325;256;1686;-44
2023/01/23 07:24:11;;;;;;;;;;;23.30;29.80;;;;;;462476;256;1690;-44
2023/01/23 07:26:12;;;;;;;;;;;23.30;29.70;;;;;;462340;256;1659;-44
2023/01/23 07:28:13;;;;;;;;;;;23.30;29.70;;;;;;462403;256;1726;-44
2023/01/23 07:30:15;;;;;;;;;;;23.30;29.60;;;;;;462530;256;2137;-44
2023/01/23 07:32:16;;;;;;;;;;;23.30;29.60;;;;;;462260;256;1983;-43
2023/01/23 07:34:17;;;;;;;;;;;23.40;29.70;;;;;;462273;256;1748;-44
2023/01/23 07:36:19;;;;;;;;;;;23.40;29.70;;;;;;462381;256;2038;-44
2023/01/23 07:38:22;;;;;;;;;;;23.40;29.60;;;;;;462505;256;1910;-43
2023/01/23 07:40:21;;;;;;;;;;;23.30;29.60;;;;;;462337;257;2195;-44
2023/01/23 07:42:22;;;;;;;;;;;23.40;29.60;;;;;;462381;256;1749;-44
2023/01/23 07:44:24;;;;;;;;;;;23.40;29.60;;;;;;462376;256;1715;-44
2023/01/23 07:46:25;;;;;;;;;;;23.40;29.50;;;;;;462410;256;1958;-44
2023/01/23 07:48:27;;;;;;;;;;;23.40;29.50;;;;;;462187;256;1706;-44
2023/01/23 07:50:28;;;;;;;;;;;23.40;29.50;;;;;;462320;256;1538;-44
2023/01/23 07:52:29;;;;;;;;;;;23.40;29.50;;;;;;462198;256;1829;-44
2023/01/23 07:54:30;;;;;;;;;;;23.50;29.50;;;;;;462294;256;1558;-44
2023/01/23 07:56:32;;;;;;;;;;;23.50;29.50;;;;;;462341;256;2680;-44
2023/01/23 07:58:33;;;;;;;;;;;23.50;29.50;;;;;;462351;256;2015;-44
2023/01/23 08:00:34;;;;;;;;;;;23.50;29.50;;;;;;462183;256;2211;-44
2023/01/23 08:02:36;;;;;;;;;;;23.50;29.50;;;;;;462192;256;1820;-44
2023/01/23 08:04:37;;;;;;;;;;;23.50;29.40;;;;;;462155;256;2173;-44
2023/01/23 08:06:38;;;;;;;;;;;23.60;29.40;;;;;;462243;256;1685;-44
2023/01/23 08:08:40;;;;;;;;;;;23.60;29.40;;;;;;462325;256;1734;-43
2023/01/23 08:10:41;;;;;;;;;;;23.60;29.40;;;;;;462346;256;1924;-44
2023/01/23 08:12:42;;;;;;;;;;;23.70;29.40;;;;;;462474;256;2034;-44
2023/01/23 08:14:44;;;;;;;;;;;23.60;29.40;;;;;;462227;256;2306;-44
2023/01/23 08:16:45;;;;;;;;;;;23.70;29.40;;;;;;462303;256;1811;-44
2023/01/23 08:18:46;;;;;;;;;;;23.70;29.40;;;;;;462390;256;1789;-44
2023/01/23 08:20:48;;;;;;;;;;;23.70;29.40;;;;;;462357;256;2199;-44
2023/01/23 08:22:49;;;;;;;;;;;23.70;29.40;;;;;;462424;256;1935;-44
2023/01/23 08:24:50;;;;;;;;;;;23.70;29.30;;;;;;462368;256;1796;-44
2023/01/23 08:26:52;;;;;;;;;;;23.70;29.40;;;;;;462169;256;1766;-43
2023/01/23 08:28:53;;;;;;;;;;;23.70;29.30;;;;;;462399;256;1630;-44
2023/01/23 08:30:54;;;;;;;;;;;23.70;29.40;;;;;;462288;256;1945;-44
2023/01/23 08:32:56;;;;;;;;;;;23.70;29.40;;;;;;462330;256;1744;-44
2023/01/23 08:34:58;;;;;;;;;;;23.80;29.40;;;;;;462430;256;1896;-44
2023/01/23 08:36:59;;;;;;;;;;;23.70;29.40;;;;;;462212;256;2071;-44
2023/01/23 08:39:00;;;;;;;;;;;23.80;29.40;;;;;;462289;256;1577;-44
2023/01/23 08:41:02;;;;;;;;;;;23.80;29.30;;;;;;462316;256;2780;-44
2023/01/23 08:43:03;;;;;;;;;;;23.80;29.30;;;;;;462372;256;1920;-43
2023/01/23 08:45:04;;;;;;;;;;;23.80;29.30;;;;;;462331;256;2117;-44
2023/01/23 08:47:06;;;;;;;;;;;23.80;29.30;;;;;;462205;256;2475;-44
2023/01/23 08:49:07;;;;;;;;;;;23.80;29.30;;;;;;462368;256;2568;-44
2023/01/23 08:51:08;;;;;;;;;;;23.80;29.30;;;;;;462235;256;1719;-44
2023/01/23 08:53:09;;;;;;;;;;;23.80;29.30;;;;;;462295;256;1969;-44
2023/01/23 08:55:11;;;;;;;;;;;23.90;29.30;;;;;;462347;256;1496;-44
2023/01/23 08:57:12;;;;;;;;;;;23.80;29.30;;;;;;462194;256;1700;-44
2023/01/23 08:59:14;;;;;;;;;;;23.90;29.30;;;;;;461519;256;1657;-44
2023/01/23 09:01:15;;;;;;;;;;;23.80;29.30;;;;;;462194;256;2206;-44
2023/01/23 09:03:16;;;;;;;;;;;23.90;29.30;;;;;;462403;256;1868;-44
2023/01/23 09:05:18;;;;;;;;;;;23.90;29.30;;;;;;462318;256;2069;-44
2023/01/23 09:07:19;;;;;;;;;;;23.90;29.30;;;;;;462124;256;1557;-44
2023/01/23 09:09:20;;;;;;;;;;;23.90;29.30;;;;;;462346;256;1991;-43
2023/01/23 09:11:22;;;;;;;;;;;23.90;29.30;;;;;;462070;256;1675;-44
2023/01/23 09:13:23;;;;;;;;;;;23.90;29.20;;;;;;462420;256;2044;-44
2023/01/23 09:15:24;;;;;;;;;;;23.90;29.30;;;;;;462164;256;2053;-43
2023/01/23 09:17:26;;;;;;;;;;;23.90;29.30;;;;;;462139;256;2171;-44
2023/01/23 09:19:27;;;;;;;;;;;23.90;29.20;;;;;;462389;256;2055;-43
2023/01/23 09:21:29;;;;;;;;;;;23.90;29.20;;;;;;462134;256;2191;-44
2023/01/23 09:23:30;;;;;;;;;;;24.00;29.20;;;;;;462495;256;2611;-44
2023/01/23 09:25:31;;;;;;;;;;;24.00;29.20;;;;;;462408;256;2100;-43
2023/01/23 09:27:33;;;;;;;;;;;24.00;29.10;;;;;;462200;256;2346;-44
2023/01/23 09:29:34;;;;;;;;;;;23.90;29.20;;;;;;462264;256;1953;-43
2023/01/23 09:31:36;;;;;;;;;;;23.80;29.30;;;;;;462003;256;1554;-44
2023/01/23 09:33:37;;;;;;;;;;;23.60;29.50;;;;;;462235;256;1886;-44
2023/01/23 09:35:38;;;;;;;;;;;23.40;29.70;;;;;;462324;256;1864;-43
2023/01/23 09:39:59;;;;;;;;;;;23.00;30.10;;;;;;462318;257;1715;-43
2023/01/23 09:42:03;;;;;;;;;;;22.90;30.30;;;;;;460448;256;2239;-43
2023/01/23 09:44:01;;;;;;;;;;;22.70;30.50;;;;;;462211;257;1828;-43
2023/01/23 09:46:03;;;;;;;;;;;22.60;30.70;;;;;;462013;256;1922;-43
2023/01/23 09:48:04;;;;;;;;;;;22.50;30.80;;;;;;462192;256;1984;-43
2023/01/23 09:50:06;;;;;;;;;;;22.50;30.80;;;;;;462296;256;1957;-43
2023/01/23 09:52:07;;;;;;;;;;;22.50;30.90;;;;;;462154;256;1981;-43
2023/01/23 09:54:08;;;;;;;;;;;22.40;31.00;;;;;;462339;256;2159;-43
2023/01/23 09:56:09;;;;;;;;;;;22.30;31.00;;;;;;462123;256;1751;-43
2023/01/23 09:58:11;;;;;;;;;;;22.30;31.10;;;;;;462237;256;2318;-43
2023/01/23 10:00:12;;;;;;;;;;;22.20;31.20;;;;;;462284;256;2207;-43
2023/01/23 10:02:13;;;;;;;;;;;22.20;31.20;;;;;;462113;256;2280;-43
2023/01/23 10:04:15;;;;;;;;;;;22.10;31.30;;;;;;462300;256;1728;-43
2023/01/23 10:06:16;;;;;;;;;;;22.20;31.30;;;;;;462147;256;2452;-44
2023/01/23 10:08:17;;;;;;;;;;;22.10;31.30;;;;;;462348;256;1856;-43
2023/01/23 10:10:18;;;;;;;;;;;22.10;31.40;;;;;;462217;256;1875;-43
2023/01/23 10:12:20;;;;;;;;;;;22.00;31.40;;;;;;461774;256;1655;-43
2023/01/23 10:14:21;;;;;;;;;;;22.00;31.40;;;;;;461888;256;1888;-43
2023/01/23 10:16:22;;;;;;;;;;;22.00;31.50;;;;;;461844;256;1626;-43
2023/01/23 10:18:24;;;;;;;;;;;22.00;31.50;;;;;;461934;256;1722;-43
2023/01/23 10:20:29;;;;;;;;;;;22.00;31.50;;;;;;461945;256;2686;-43
2023/01/23 10:22:27;;;;;;;;;;;22.00;31.60;;;;;;461720;257;2191;-43
2023/01/23 10:24:28;;;;;;;;;;;22.00;31.60;;;;;;462062;256;2205;-43
2023/01/23 10:26:30;;;;;;;;;;;22.00;31.60;;;;;;461857;256;1803;-43
2023/01/23 10:28:31;;;;;;;;;;;21.90;31.60;;;;;;462191;256;1707;-43
2023/01/23 10:30:32;;;;;;;;;;;21.90;31.70;;;;;;462046;256;1876;-43
2023/01/23 10:32:34;;;;;;;;;;;21.90;31.70;;;;;;462083;256;1820;-43
2023/01/23 10:34:36;;;;;;;;;;;21.90;31.70;;;;;;462124;256;1701;-44
2023/01/23 10:36:36;;;;;;;;;;;21.80;31.80;;;;;;462004;256;1824;-44
2023/01/23 10:38:38;;;;;;;;;;;21.80;31.70;;;;;;462203;256;1674;-43
2023/01/23 10:42:58;;;;;;;;;;;21.80;31.80;;;;;;462302;257;2124;-44
2023/01/23 10:44:59;;;;;;;;;;;21.80;31.70;;;;;;462305;256;1659;-43
2023/01/23 10:47:01;;;;;;;;;;;21.70;31.70;;;;;;462192;256;1652;-43
2023/01/23 10:49:02;;;;;;;;;;;21.70;31.70;;;;;;461959;256;1690;-43
2023/01/23 10:51:03;;;;;;;;;;;21.70;31.80;;;;;;461723;256;1631;-43
2023/01/23 10:53:05;;;;;;;;;;;21.60;31.80;;;;;;461902;256;1783;-43
2023/01/23 10:55:06;;;;;;;;;;;21.60;31.80;;;;;;461962;256;1762;-43
2023/01/23 10:57:07;;;;;;;;;;;21.50;31.80;;;;;;461894;256;2078;-43
2023/01/23 10:59:09;;;;;;;;;;;21.50;31.80;;;;;;461960;256;2269;-43
2023/01/23 11:01:10;;;;;;;;;;;21.50;31.80;;;;;;461978;256;1830;-44
2023/01/23 11:03:11;;;;;;;;;;;21.50;31.70;;;;;;461764;256;2191;-43
2023/01/23 11:05:13;;;;;;;;;;;21.50;31.80;;;;;;461700;256;2146;-43
2023/01/23 11:07:14;;;;;;;;;;;21.50;31.80;;;;;;461613;256;2673;-43
2023/01/23 11:09:15;;;;;;;;;;;21.50;31.80;;;;;;461845;256;1539;-44
2023/01/23 11:11:17;;;;;;;;;;;21.50;31.70;;;;;;461425;256;1552;-43
2023/01/23 11:13:18;;;;;;;;;;;21.50;31.70;;;;;;461713;256;1951;-44
2023/01/23 11:15:19;;;;;;;;;;;21.50;31.80;;;;;;461678;256;1922;-43
2023/01/23 11:17:21;;;;;;;;;;;21.50;31.80;;;;;;461663;256;1899;-43
2023/01/23 11:19:22;;;;;;;;;;;21.50;31.80;;;;;;461595;256;1818;-44
2023/01/23 11:21:23;;;;;;;;;;;21.40;31.80;;;;;;461690;256;1551;-43
2023/01/23 11:23:25;;;;;;;;;;;21.40;31.80;;;;;;461777;256;2222;-43
2023/01/23 11:25:26;;;;;;;;;;;21.50;31.80;;;;;;461752;256;2427;-43
2023/01/23 11:27:28;;;;;;;;;;;21.40;31.80;;;;;;461773;256;1751;-43
2023/01/23 11:29:29;;;;;;;;;;;21.40;31.80;;;;;;461857;256;2129;-43
2023/01/23 11:31:30;;;;;;;;;;;21.40;31.80;;;;;;461789;256;1747;-43
2023/01/23 11:33:31;;;;;;;;;;;21.40;31.90;;;;;;461850;256;1812;-44
2023/01/23 11:35:33;;;;;;;;;;;21.40;31.90;;;;;;461745;256;2045;-44
2023/01/23 11:37:34;;;;;;;;;;;21.40;31.80;;;;;;461737;256;1628;-44
2023/01/23 11:39:35;;;;;;;;;;;21.30;31.80;;;;;;461737;256;1714;-44
2023/01/23 11:41:37;;;;;;;;;;;21.30;31.80;;;;;;461704;256;1611;-43
2023/01/23 11:43:38;;;;;;;;;;;21.30;31.90;;;;;;461899;256;2203;-43
2023/01/23 11:45:39;;;;;;;;;;;21.30;31.90;;;;;;461755;256;2274;-43
2023/01/23 11:47:41;;;;;;;;;;;21.30;31.90;;;;;;461644;256;2205;-43
2023/01/23 11:49:42;;;;;;;;;;;21.30;31.80;;;;;;461665;256;2088;-43
2023/01/23 11:51:44;;;;;;;;;;;21.30;31.90;;;;;;461798;256;1952;-43
2023/01/23 11:53:45;;;;;;;;;;;21.30;31.90;;;;;;461967;256;1733;-43
2023/01/23 11:55:46;;;;;;;;;;;21.20;31.90;;;;;;461808;256;2172;-43
2023/01/23 11:57:48;;;;;;;;;;;21.20;31.80;;;;;;461768;256;2156;-43
2023/01/23 11:59:49;;;;;;;;;;;21.20;31.80;;;;;;461826;256;1938;-44
2023/01/23 12:01:50;;;;;;;;;;;21.20;31.90;;;;;;461795;256;2230;-43
2023/01/23 12:03:51;;;;;;;;;;;21.20;31.90;;;;;;461972;256;2184;-43
2023/01/23 12:05:53;;;;;;;;;;;21.20;31.90;;;;;;461816;256;1734;-43
2023/01/23 12:07:54;;;;;;;;;;;21.20;31.90;;;;;;461951;256;1780;-43
2023/01/23 12:09:55;;;;;;;;;;;21.20;31.90;;;;;;461929;256;2342;-44
2023/01/23 12:11:57;;;;;;;;;;;21.10;31.90;;;;;;461942;256;1569;-43